createdAt,value
2019-01-11T00:00:50.747Z,5.20
2019-01-11T00:03:19.354Z,5.73
2019-01-11T00:05:48.069Z,5.20
2019-01-11T00:08:16.749Z,4.87
2019-01-11T00:10:45.318Z,5.63
2019-01-11T00:13:13.967Z,5.10
2019-01-11T00:15:42.567Z,6.90
2019-01-11T00:18:11.137Z,5.33
2019-01-11T00:20:39.671Z,6.53
2019-01-11T00:23:08.317Z,7.60
2019-01-11T00:25:36.842Z,6.93
2019-01-11T00:28:05.550Z,6.57
2019-01-11T00:33:08.122Z,8.00
2019-01-11T00:35:36.710Z,9.90
2019-01-11T00:38:05.195Z,8.80
2019-01-11T00:40:33.775Z,9.10
2019-01-11T00:43:02.394Z,9.50
2019-01-11T00:45:30.974Z,10.30
2019-01-11T00:47:59.526Z,12.23
2019-01-11T00:50:28.106Z,9.60
2019-01-11T00:52:56.666Z,9.27
2019-01-11T00:55:25.246Z,10.27
2019-01-11T00:57:53.818Z,9.43
2019-01-11T01:00:24.098Z,11.17
2019-01-11T01:02:52.931Z,10.40
2019-01-11T01:05:21.684Z,8.93
2019-01-11T01:07:50.538Z,11.00
2019-01-11T01:10:20.938Z,11.93
2019-01-11T01:12:49.550Z,10.13
2019-01-11T01:15:18.763Z,13.03
2019-01-11T01:17:47.430Z,11.30
2019-01-11T01:20:17.994Z,11.47
2019-01-11T01:22:47.054Z,11.37
2019-01-11T01:25:15.874Z,12.73
2019-01-11T01:27:44.497Z,13.17
2019-01-11T01:30:18.038Z,12.43
2019-01-11T01:32:46.508Z,12.97
2019-01-11T01:35:15.238Z,15.23
2019-01-11T01:37:44.222Z,14.40
2019-01-11T01:40:15.342Z,14.23
2019-01-11T01:42:44.018Z,12.50
2019-01-11T01:45:16.114Z,15.17
2019-01-11T01:47:45.027Z,13.20
2019-01-11T01:50:14.147Z,13.33
2019-01-11T01:52:42.782Z,15.13
2019-01-11T01:55:13.706Z,12.07
2019-01-11T01:57:42.264Z,12.17
2019-01-11T02:00:16.718Z,15.40
2019-01-11T02:02:45.266Z,18.37
2019-01-11T02:05:14.614Z,15.23
2019-01-11T02:07:43.258Z,12.93
2019-01-11T02:10:12.950Z,14.97
2019-01-11T02:12:41.614Z,14.67
2019-01-11T02:15:11.513Z,17.03
2019-01-11T02:17:40.164Z,17.00
2019-01-11T02:20:11.810Z,16.43
2019-01-11T02:22:40.382Z,15.57
2019-01-11T02:25:09.402Z,16.87
2019-01-11T02:27:37.912Z,16.20
2019-01-11T02:30:09.625Z,16.40
2019-01-11T02:32:38.182Z,17.20
2019-01-11T02:35:07.011Z,15.27
2019-01-11T02:37:35.568Z,18.20
2019-01-11T02:40:06.758Z,16.23
2019-01-11T02:42:35.318Z,17.77
2019-01-11T02:45:05.368Z,15.97
2019-01-11T02:47:33.900Z,14.40
2019-01-11T02:50:02.494Z,14.97
2019-01-11T02:52:31.050Z,15.23
2019-01-11T02:54:59.604Z,18.37
2019-01-11T02:57:28.186Z,16.17
2019-01-11T02:59:56.742Z,16.37
2019-01-11T03:02:25.254Z,17.33
2019-01-11T03:04:53.806Z,15.73
2019-01-11T03:07:22.382Z,12.97
2019-01-11T03:09:50.926Z,16.20
2019-01-11T03:12:19.523Z,15.77
2019-01-11T03:14:48.077Z,15.87
2019-01-11T03:17:16.662Z,15.40
2019-01-11T03:19:47.869Z,14.37
2019-01-11T03:22:15.418Z,13.97
2019-01-11T03:24:44.000Z,15.97
2019-01-11T03:27:12.666Z,15.33
2019-01-11T03:29:41.242Z,18.37
2019-01-11T03:32:09.867Z,14.87
2019-01-11T03:34:40.098Z,16.03
2019-01-11T03:37:08.654Z,13.20
2019-01-11T03:39:37.242Z,13.30
2019-01-11T03:42:07.436Z,16.37
2019-01-11T03:44:35.996Z,15.13
2019-01-11T03:47:04.843Z,15.00
2019-01-11T03:49:33.398Z,14.13
2019-01-11T03:52:01.910Z,13.57
2019-01-11T03:54:30.454Z,13.20
2019-01-11T03:56:59.277Z,16.37
2019-01-11T03:59:27.839Z,13.77
2019-01-11T04:01:56.454Z,14.27
2019-01-11T04:04:25.046Z,11.27
2019-01-11T04:06:53.683Z,16.00
2019-01-11T04:09:22.288Z,11.90
2019-01-11T04:11:50.773Z,14.03
2019-01-11T04:14:19.358Z,13.13
2019-01-11T04:16:47.906Z,12.90
2019-01-11T04:19:16.502Z,13.13
2019-01-11T04:21:46.751Z,11.20
2019-01-11T04:24:15.326Z,12.83
2019-01-11T04:26:43.880Z,13.17
2019-01-11T04:29:12.462Z,11.73
2019-01-11T04:31:41.014Z,12.83
2019-01-11T04:34:09.602Z,13.90
2019-01-11T04:36:38.210Z,13.00
2019-01-11T04:39:08.026Z,13.33
2019-01-11T04:41:36.580Z,13.53
2019-01-11T04:44:05.159Z,12.30
2019-01-11T04:46:33.712Z,13.23
2019-01-11T04:49:02.291Z,13.73
2019-01-11T04:51:30.941Z,12.07
2019-01-11T04:53:59.518Z,10.93
2019-01-11T04:56:28.071Z,10.63
2019-01-11T04:58:56.652Z,12.07
2019-01-11T05:01:25.370Z,11.73
2019-01-11T05:03:54.043Z,13.10
2019-01-11T05:06:22.590Z,10.63
2019-01-11T05:08:51.200Z,10.97
2019-01-11T05:11:19.745Z,9.93
2019-01-11T05:13:50.007Z,10.13
2019-01-11T05:16:18.623Z,9.33
2019-01-11T05:18:47.207Z,11.70
2019-01-11T05:21:15.775Z,10.73
2019-01-11T05:23:44.336Z,9.80
2019-01-11T05:26:12.983Z,12.83
2019-01-11T05:28:41.458Z,10.97
2019-01-11T05:31:10.036Z,10.20
2019-01-11T05:33:38.520Z,10.00
2019-01-11T05:36:07.033Z,9.27
2019-01-11T05:38:35.583Z,9.80
2019-01-11T05:41:04.273Z,10.17
2019-01-11T05:43:32.821Z,8.37
2019-01-11T05:46:01.414Z,8.43
2019-01-11T05:48:29.954Z,8.80
2019-01-11T05:50:58.543Z,8.47
2019-01-11T05:53:27.166Z,9.97
2019-01-11T05:55:55.918Z,11.00
2019-01-11T05:58:28.989Z,9.80
2019-01-11T06:00:57.641Z,11.17
2019-01-11T06:03:26.259Z,12.07
2019-01-11T06:05:54.915Z,10.90
2019-01-11T06:08:23.475Z,11.23
2019-01-11T06:10:52.053Z,11.83
2019-01-11T06:13:20.606Z,9.83
2019-01-11T06:15:49.457Z,13.20
2019-01-11T06:18:18.091Z,11.10
2019-01-11T06:20:46.597Z,9.60
2019-01-11T06:23:15.153Z,10.93
2019-01-11T06:25:43.660Z,11.30
2019-01-11T06:28:12.291Z,10.17
2019-01-11T06:30:40.895Z,11.83
2019-01-11T06:33:10.113Z,15.10
2019-01-11T06:35:38.929Z,11.17
2019-01-11T06:38:07.477Z,13.00
2019-01-11T06:40:36.054Z,13.30
2019-01-11T06:43:04.854Z,12.23
2019-01-11T06:45:33.434Z,13.07
2019-01-11T06:48:02.145Z,10.70
2019-01-11T06:50:36.345Z,10.60
2019-01-11T06:53:00.925Z,9.70
2019-01-11T06:55:29.470Z,11.90
2019-01-11T06:57:58.126Z,12.00
2019-01-11T07:00:26.678Z,11.37
2019-01-11T07:02:55.187Z,10.80
2019-01-11T07:05:23.743Z,12.97
2019-01-11T07:07:52.331Z,13.43
2019-01-11T07:10:22.629Z,12.67
2019-01-11T07:12:51.216Z,13.67
2019-01-11T07:15:19.911Z,13.47
2019-01-11T07:17:48.492Z,10.97
2019-01-11T07:20:17.116Z,12.03
2019-01-11T07:22:45.693Z,14.07
2019-01-11T07:25:17.368Z,12.63
2019-01-11T07:27:47.516Z,15.67
2019-01-11T07:30:16.785Z,15.10
2019-01-11T07:32:45.337Z,12.93
2019-01-11T07:35:14.032Z,18.87
2019-01-11T07:37:42.680Z,15.73
2019-01-11T07:40:12.514Z,16.27
2019-01-11T07:42:41.094Z,14.27
2019-01-11T07:45:12.041Z,18.70
2019-01-11T07:47:40.638Z,15.30
2019-01-11T07:50:10.253Z,17.40
2019-01-11T07:52:40.120Z,19.17
2019-01-11T07:55:09.871Z,16.73
2019-01-11T07:57:38.529Z,17.80
2019-01-11T08:00:10.153Z,18.10
2019-01-11T08:02:38.667Z,19.53
2019-01-11T08:05:07.720Z,16.27
2019-01-11T08:07:36.575Z,16.20
2019-01-11T08:10:13.040Z,13.30
2019-01-11T08:12:41.684Z,13.87
2019-01-11T08:15:16.245Z,12.97
2019-01-11T08:17:44.893Z,15.20
2019-01-11T08:20:13.634Z,13.77
2019-01-11T08:22:44.898Z,14.77
2019-01-11T08:25:14.787Z,15.20
2019-01-11T08:27:44.599Z,13.73
2019-01-11T08:30:17.225Z,16.13
2019-01-11T08:32:45.821Z,15.10
2019-01-11T08:35:15.419Z,16.10
2019-01-11T08:37:44.214Z,13.07
2019-01-11T08:40:13.094Z,18.63
2019-01-11T08:42:41.795Z,15.03
2019-01-11T08:45:12.830Z,16.10
2019-01-11T08:47:41.455Z,17.70
2019-01-11T08:50:18.861Z,16.67
2019-01-11T08:52:47.987Z,17.37
2019-01-11T08:55:16.823Z,14.10
2019-01-11T08:57:45.439Z,16.23
2019-01-11T09:00:15.462Z,15.87
2019-01-11T09:02:44.086Z,15.03
2019-01-11T09:05:13.305Z,16.87
2019-01-11T09:07:42.434Z,14.47
2019-01-11T09:10:14.154Z,17.73
2019-01-11T09:12:42.709Z,14.33
2019-01-11T09:15:11.358Z,14.13
2019-01-11T09:17:41.623Z,13.43
2019-01-11T09:20:10.381Z,14.83
2019-01-11T09:22:38.864Z,12.70
2019-01-11T09:25:07.448Z,11.93
2019-01-11T09:27:36.001Z,12.83
2019-01-11T09:30:07.719Z,11.53
2019-01-11T09:32:36.294Z,11.37
2019-01-11T09:35:05.413Z,13.77
2019-01-11T09:37:33.968Z,14.27
2019-01-11T09:40:02.736Z,12.30
2019-01-11T09:42:31.289Z,12.67
2019-01-11T09:44:59.868Z,14.70
2019-01-11T09:47:28.346Z,12.20
2019-01-11T09:49:57.001Z,12.30
2019-01-11T09:52:25.553Z,17.10
2019-01-11T09:54:54.345Z,13.57
2019-01-11T09:57:22.847Z,10.43
2019-01-11T09:59:51.431Z,10.17
2019-01-11T10:02:39.377Z,10.67
2019-01-11T10:05:09.608Z,9.43
2019-01-11T10:07:38.943Z,9.37
2019-01-11T10:10:10.637Z,9.07
2019-01-11T10:12:39.227Z,11.43
2019-01-11T10:15:10.595Z,11.83
2019-01-11T10:17:39.378Z,9.43
2019-01-11T10:20:10.510Z,9.77
2019-01-11T10:22:39.130Z,8.53
2019-01-11T10:25:12.435Z,12.70
2019-01-11T10:27:41.223Z,11.30
2019-01-11T10:30:13.117Z,10.60
2019-01-11T10:32:41.809Z,8.27
2019-01-11T10:35:11.125Z,9.50
2019-01-11T10:37:39.830Z,10.83
2019-01-11T10:40:11.323Z,9.83
2019-01-11T10:42:39.911Z,9.40
2019-01-11T10:45:11.893Z,9.33
2019-01-11T10:47:40.473Z,16.27
2019-01-11T10:50:12.703Z,10.53
2019-01-11T10:52:41.458Z,8.50
2019-01-11T10:55:12.255Z,7.83
2019-01-11T10:57:41.189Z,7.87
2019-01-11T11:00:18.591Z,8.33
2019-01-11T11:02:47.173Z,10.13
2019-01-11T11:05:15.793Z,6.87
2019-01-11T11:07:44.390Z,6.93
2019-01-11T11:10:14.892Z,8.67
2019-01-11T11:12:43.640Z,7.77
2019-01-11T11:15:14.801Z,8.13
2019-01-11T11:17:43.477Z,8.27
2019-01-11T11:20:16.886Z,7.50
2019-01-11T11:22:45.468Z,9.57
2019-01-11T11:25:18.963Z,7.20
2019-01-11T11:27:47.754Z,8.37
2019-01-11T11:30:18.076Z,7.73
2019-01-11T11:32:48.333Z,8.87
2019-01-11T11:35:16.918Z,6.80
2019-01-11T11:37:45.462Z,6.67
2019-01-11T11:40:14.117Z,6.97
2019-01-11T11:42:42.729Z,7.83
2019-01-11T11:45:11.681Z,9.37
2019-01-11T11:47:40.252Z,7.93
2019-01-11T11:50:10.648Z,8.70
2019-01-11T11:52:39.298Z,7.60
2019-01-11T11:55:09.085Z,8.60
2019-01-11T11:57:37.591Z,8.57
2019-01-11T12:00:15.129Z,9.00
2019-01-11T12:02:43.709Z,7.00
2019-01-11T12:05:12.536Z,7.03
2019-01-11T12:07:41.125Z,12.50
2019-01-11T12:10:12.251Z,8.33
2019-01-11T12:12:40.942Z,8.00
2019-01-11T12:15:11.335Z,6.80
2019-01-11T12:17:39.916Z,7.30
2019-01-11T12:20:14.963Z,6.80
2019-01-11T12:22:43.614Z,6.00
2019-01-11T12:25:12.237Z,6.70
2019-01-11T12:27:40.768Z,8.20
2019-01-11T12:30:12.253Z,7.00
2019-01-11T12:32:40.833Z,9.30
2019-01-11T12:35:09.384Z,7.07
2019-01-11T12:37:38.090Z,6.50
2019-01-11T12:40:09.595Z,10.00
2019-01-11T12:42:38.257Z,8.23
2019-01-11T12:45:09.445Z,6.93
2019-01-11T12:47:38.097Z,7.93
2019-01-11T12:50:09.883Z,6.87
2019-01-11T12:52:38.425Z,6.23
2019-01-11T12:55:07.547Z,8.37
2019-01-11T12:57:36.097Z,7.30
2019-01-11T13:00:10.745Z,6.73
2019-01-11T13:02:39.303Z,7.73
2019-01-11T13:05:10.830Z,6.37
2019-01-11T13:07:39.377Z,5.70
2019-01-11T13:10:13.850Z,6.93
2019-01-11T13:12:42.476Z,6.00
2019-01-11T13:15:13.697Z,6.47
2019-01-11T13:17:42.329Z,7.67
2019-01-11T13:20:13.233Z,7.10
2019-01-11T13:22:41.777Z,6.23
2019-01-11T13:25:10.602Z,7.07
2019-01-11T13:27:39.309Z,6.53
2019-01-11T13:30:10.974Z,7.40
2019-01-11T13:32:39.521Z,6.83
2019-01-11T13:35:08.559Z,6.57
2019-01-11T13:37:37.197Z,9.60
2019-01-11T13:40:14.605Z,7.53
2019-01-11T13:42:43.171Z,7.40
2019-01-11T13:45:11.921Z,7.90
2019-01-11T13:47:40.473Z,6.80
2019-01-11T13:50:17.713Z,9.00
2019-01-11T13:52:46.287Z,9.67
2019-01-11T13:55:14.927Z,6.90
2019-01-11T13:57:43.476Z,9.30
2019-01-11T14:00:21.736Z,7.50
2019-01-11T14:02:50.924Z,8.50
2019-01-11T14:05:19.572Z,9.83
2019-01-11T14:07:48.198Z,6.80
2019-01-11T14:10:16.881Z,7.70
2019-01-11T14:12:45.443Z,8.67
2019-01-11T14:15:14.173Z,8.50
2019-01-11T14:17:42.893Z,8.10
2019-01-11T14:20:12.115Z,9.23
2019-01-11T14:22:40.748Z,8.73
2019-01-11T14:25:10.964Z,9.30
2019-01-11T14:27:39.577Z,13.53
2019-01-11T14:30:13.510Z,10.53
2019-01-11T14:32:42.187Z,13.73
2019-01-11T14:35:10.918Z,15.37
2019-01-11T14:37:39.553Z,12.60
2019-01-11T14:40:11.246Z,14.03
2019-01-11T14:42:39.790Z,11.33
2019-01-11T14:45:11.214Z,9.93
2019-01-11T14:47:39.770Z,10.73
2019-01-11T14:50:11.502Z,11.93
2019-01-11T14:52:39.986Z,9.23
2019-01-11T14:55:09.410Z,12.60
2019-01-11T14:57:37.959Z,10.23
2019-01-11T15:00:12.438Z,10.17
2019-01-11T15:02:41.153Z,12.83
2019-01-11T15:05:11.442Z,11.57
2019-01-11T15:07:40.021Z,11.30
2019-01-11T15:10:11.551Z,9.57
2019-01-11T15:12:41.178Z,9.03
2019-01-11T15:15:10.084Z,10.70
2019-01-11T15:17:38.668Z,11.07
2019-01-11T15:20:10.559Z,10.70
2019-01-11T15:22:39.206Z,14.37
2019-01-11T15:25:29.296Z,10.53
2019-01-11T15:27:57.877Z,8.97
2019-01-11T15:30:26.496Z,8.30
2019-01-11T15:32:55.073Z,9.77
2019-01-11T15:35:23.706Z,8.83
2019-01-11T15:37:52.234Z,9.40
2019-01-11T15:40:25.805Z,12.50
2019-01-11T15:42:54.523Z,8.87
2019-01-11T15:45:23.082Z,11.10
2019-01-11T15:47:51.614Z,11.23
2019-01-11T15:50:42.906Z,16.70
2019-01-11T15:53:11.509Z,12.73
2019-01-11T15:55:40.117Z,11.63
2019-01-11T15:58:08.782Z,16.67
2019-01-11T16:00:45.906Z,11.97
2019-01-11T16:03:14.589Z,12.13
2019-01-11T16:05:43.212Z,11.87
2019-01-11T16:08:11.828Z,11.67
2019-01-11T16:10:55.114Z,12.60
2019-01-11T16:13:23.844Z,11.50
2019-01-11T16:15:55.503Z,11.77
2019-01-11T16:18:24.147Z,11.87
2019-01-11T16:20:54.310Z,13.73
2019-01-11T16:23:22.964Z,13.40
2019-01-11T16:25:51.509Z,13.27
2019-01-11T16:28:20.029Z,11.63
2019-01-11T16:30:48.661Z,14.47
2019-01-11T16:33:17.312Z,11.73
2019-01-11T16:35:45.866Z,11.73
2019-01-11T16:38:14.450Z,15.70
2019-01-11T16:40:43.002Z,12.97
2019-01-11T16:43:11.602Z,12.70
2019-01-11T16:45:40.159Z,11.67
2019-01-11T16:48:08.742Z,13.00
2019-01-11T16:50:37.315Z,11.10
2019-01-11T16:53:06.074Z,10.83
2019-01-11T16:55:34.551Z,10.30
2019-01-11T16:58:03.133Z,11.17
2019-01-11T17:00:31.622Z,9.77
2019-01-11T17:03:00.331Z,11.83
2019-01-11T17:05:28.966Z,8.53
2019-01-11T17:07:57.550Z,10.00
2019-01-11T17:10:26.125Z,9.00
2019-01-11T17:12:54.706Z,11.00
2019-01-11T17:15:23.266Z,10.90
2019-01-11T17:17:51.822Z,11.47
2019-01-11T17:20:20.474Z,8.57
2019-01-11T17:22:52.940Z,8.93
2019-01-11T17:25:19.278Z,9.30
2019-01-11T17:27:47.834Z,9.90
2019-01-11T17:30:17.385Z,8.37
2019-01-11T17:32:46.001Z,10.03
2019-01-11T17:35:14.687Z,7.80
2019-01-11T17:37:43.374Z,8.90
2019-01-11T17:40:12.599Z,7.80
2019-01-11T17:42:41.287Z,7.53
2019-01-11T17:45:12.110Z,9.63
2019-01-11T17:47:41.004Z,6.60
2019-01-11T17:50:14.032Z,5.30
2019-01-11T17:52:42.901Z,7.07
2019-01-11T17:55:11.910Z,7.93
2019-01-11T17:57:40.536Z,8.17
2019-01-11T18:00:12.051Z,6.77
2019-01-11T18:02:40.669Z,5.63
2019-01-11T18:05:11.095Z,6.30
2019-01-11T18:07:39.822Z,7.20
2019-01-11T18:10:10.155Z,7.23
2019-01-11T18:12:38.966Z,9.13
2019-01-11T18:15:13.852Z,8.40
2019-01-11T18:17:42.494Z,8.83
2019-01-11T18:20:14.498Z,8.27
2019-01-11T18:22:43.105Z,5.70
2019-01-11T18:25:11.794Z,7.17
2019-01-11T18:27:40.417Z,5.67
2019-01-11T18:30:12.094Z,5.07
2019-01-11T18:32:40.650Z,11.00
2019-01-11T18:35:09.782Z,7.30
2019-01-11T18:37:38.331Z,8.77
2019-01-11T18:40:15.534Z,18.03
2019-01-11T18:42:44.354Z,24.13
2019-01-11T18:45:13.048Z,13.33
2019-01-11T18:47:41.658Z,19.07
2019-01-11T18:50:22.287Z,13.93
2019-01-11T18:52:51.318Z,10.57
2019-01-11T18:55:20.105Z,9.30
2019-01-11T18:57:48.796Z,9.80
2019-01-11T19:00:22.110Z,10.10
2019-01-11T19:02:50.779Z,10.27
2019-01-11T19:05:19.430Z,10.97
2019-01-11T19:07:48.390Z,10.80
2019-01-11T19:10:18.747Z,12.23
2019-01-11T19:12:47.368Z,11.17
2019-01-11T19:15:24.774Z,13.40
2019-01-11T19:17:53.471Z,10.73
2019-01-11T19:20:24.298Z,12.03
2019-01-11T19:22:53.119Z,10.23
2019-01-11T19:25:21.774Z,12.30
2019-01-11T19:27:50.434Z,11.70
2019-01-11T19:30:23.742Z,11.83
2019-01-11T19:32:52.306Z,11.13
2019-01-11T19:35:21.008Z,13.83
2019-01-11T19:37:49.674Z,13.30
2019-01-11T19:40:18.370Z,13.60
2019-01-11T19:42:47.624Z,12.77
2019-01-11T19:45:17.006Z,12.27
2019-01-11T19:47:45.664Z,11.90
2019-01-11T19:50:19.904Z,11.40
2019-01-11T19:52:50.219Z,14.83
2019-01-11T19:55:19.848Z,14.00
2019-01-11T19:57:48.429Z,13.83
2019-01-11T20:00:20.142Z,11.50
2019-01-11T20:02:50.661Z,14.93
2019-01-11T20:05:19.875Z,11.93
2019-01-11T20:07:48.797Z,14.60
2019-01-11T20:10:23.254Z,13.90
2019-01-11T20:12:51.902Z,12.60
2019-01-11T20:15:20.531Z,14.27
2019-01-11T20:17:49.185Z,14.40
2019-01-11T20:20:17.735Z,13.43
2019-01-11T20:22:46.334Z,14.23
2019-01-11T20:25:17.830Z,13.50
2019-01-11T20:27:46.747Z,14.27
2019-01-11T20:30:23.873Z,14.33
2019-01-11T20:32:52.451Z,16.40
2019-01-11T20:35:21.275Z,15.17
2019-01-11T20:37:50.102Z,15.33
2019-01-11T20:40:19.032Z,14.97
2019-01-11T20:42:47.855Z,15.23
2019-01-11T20:45:18.364Z,14.37
2019-01-11T20:47:46.996Z,14.03
2019-01-11T20:50:17.933Z,14.93
2019-01-11T20:52:46.659Z,16.73
2019-01-11T20:55:34.543Z,14.47
2019-01-11T20:58:03.295Z,13.43
2019-01-11T21:00:32.441Z,16.47
2019-01-11T21:03:01.190Z,14.23
2019-01-11T21:05:30.314Z,13.47
2019-01-11T21:07:59.042Z,14.63
2019-01-11T21:10:27.666Z,12.33
2019-01-11T21:12:56.344Z,13.20
2019-01-11T21:15:25.043Z,10.83
2019-01-11T21:17:53.642Z,16.07
2019-01-11T21:20:22.365Z,12.90
2019-01-11T21:22:50.915Z,14.27
2019-01-11T21:25:20.582Z,17.57
2019-01-11T21:27:49.383Z,13.80
2019-01-11T21:30:26.074Z,14.37
2019-01-11T21:32:54.872Z,16.37
2019-01-11T21:35:23.811Z,17.37
2019-01-11T21:37:52.617Z,16.47
2019-01-11T21:40:21.639Z,17.13
2019-01-11T21:42:50.429Z,15.63
2019-01-11T21:45:19.349Z,13.20
2019-01-11T21:47:48.084Z,17.70
2019-01-11T21:50:21.878Z,15.33
2019-01-11T21:52:50.499Z,14.97
2019-01-11T21:55:19.323Z,17.07
2019-01-11T21:57:48.114Z,13.33
2019-01-11T22:00:22.713Z,15.50
2019-01-11T22:02:51.291Z,17.23
2019-01-11T22:05:20.009Z,16.50
2019-01-11T22:07:48.561Z,18.50
2019-01-11T22:10:17.916Z,21.03
2019-01-11T22:12:47.636Z,15.53
2019-01-11T22:15:18.591Z,20.40
2019-01-11T22:17:47.155Z,18.80
2019-01-11T22:20:17.206Z,17.13
2019-01-11T22:22:45.862Z,18.37
2019-01-11T22:25:16.536Z,15.07
2019-01-11T22:27:45.154Z,15.63
2019-01-11T22:30:16.480Z,15.60
2019-01-11T22:32:45.275Z,17.97
2019-01-11T22:35:14.203Z,18.63
2019-01-11T22:37:42.761Z,19.30
2019-01-11T22:40:19.319Z,14.60
2019-01-11T22:42:49.225Z,12.00
2019-01-11T22:45:17.893Z,15.57
2019-01-11T22:47:46.527Z,16.50
2019-01-11T22:50:16.361Z,16.27
2019-01-11T22:52:45.057Z,14.23
2019-01-11T22:55:15.786Z,17.17
2019-01-11T22:57:44.687Z,16.73
2019-01-11T23:00:39.157Z,15.87
2019-01-11T23:03:16.761Z,20.00
2019-01-11T23:05:46.571Z,15.70
2019-01-11T23:08:36.933Z,15.97
2019-01-11T23:11:37.383Z,17.13
2019-01-11T23:14:06.009Z,17.47
2019-01-11T23:16:36.140Z,16.90
2019-01-11T23:19:04.773Z,12.37
2019-01-11T23:21:33.379Z,18.07
2019-01-11T23:24:01.968Z,14.53
2019-01-11T23:26:30.679Z,18.17
2019-01-11T23:28:59.245Z,15.43
2019-01-11T23:31:27.982Z,21.10
2019-01-11T23:33:56.531Z,14.17
2019-01-11T23:36:25.122Z,13.53
2019-01-11T23:38:53.681Z,16.23
2019-01-11T23:41:22.267Z,19.43
2019-01-11T23:43:50.839Z,17.43
2019-01-11T23:46:19.424Z,18.47
2019-01-11T23:48:47.986Z,14.37
2019-01-11T23:51:16.574Z,12.87
2019-01-11T23:53:45.139Z,13.93
2019-01-11T23:56:13.750Z,14.77
2019-01-11T23:58:42.303Z,20.13
